TimeCST,TemperatureF,Dew PointF,Humidity,Sea Level PressureIn,VisibilityMPH,Wind Direction,Wind SpeedMPH,Gust SpeedMPH,PrecipitationIn,Events,Conditions,WindDirDegrees,DateUTC
12:52 AM,30.0,25.0,82,30.28,-9999.0,NW,4.6,-,N/A,,Unknown,310,2012-11-14 06:52:00
1:52 AM,28.0,24.1,85,30.28,-9999.0,SSW,3.5,-,N/A,,Unknown,210,2012-11-14 07:52:00
2:52 AM,28.0,24.1,85,30.28,-9999.0,SW,3.5,-,N/A,,Unknown,230,2012-11-14 08:52:00
3:52 AM,27.0,23.0,85,30.27,-9999.0,Calm,Calm,-,N/A,,Unknown,0,2012-11-14 09:52:00
4:52 AM,26.1,21.9,84,30.26,-9999.0,Calm,Calm,-,N/A,,Unknown,0,2012-11-14 10:52:00
5:52 AM,26.1,21.9,84,30.27,-9999.0,WSW,3.5,-,N/A,,Unknown,250,2012-11-14 11:52:00
6:52 AM,24.1,21.0,88,30.26,-9999.0,SSW,4.6,-,N/A,,Unknown,200,2012-11-14 12:52:00
7:52 AM,26.1,23.0,88,30.26,-9999.0,North,-9999.0,-,N/A,,Unknown,0,2012-11-14 13:52:00
8:52 AM,30.0,27.0,88,30.25,-9999.0,Calm,Calm,-,N/A,,Unknown,0,2012-11-14 14:52:00
9:52 AM,36.0,28.9,76,30.24,-9999.0,SSE,4.6,-,N/A,,Unknown,150,2012-11-14 15:52:00
10:52 AM,43.0,32.0,65,30.22,-9999.0,SSE,6.9,-,N/A,,Unknown,160,2012-11-14 16:52:00
11:52 AM,50.0,30.9,48,30.17,-9999.0,South,11.5,-,N/A,,Unknown,170,2012-11-14 17:52:00
12:52 PM,55.9,30.9,39,30.12,-9999.0,SSE,15.0,-,N/A,,Unknown,160,2012-11-14 18:52:00
1:52 PM,55.0,30.9,40,30.10,-9999.0,WSW,11.5,-,N/A,,Unknown,240,2012-11-14 19:52:00
2:52 PM,55.0,33.1,43,30.08,-9999.0,West,6.9,-,N/A,,Unknown,270,2012-11-14 20:52:00
3:52 PM,53.1,33.1,47,30.08,-9999.0,WNW,4.6,-,N/A,,Unknown,300,2012-11-14 21:52:00
4:52 PM,48.0,33.1,56,30.09,-9999.0,NNW,9.2,-,N/A,,Unknown,330,2012-11-14 22:52:00
5:52 PM,44.1,33.1,65,30.10,-9999.0,NNW,4.6,-,N/A,,Unknown,340,2012-11-14 23:52:00
6:52 PM,41.0,33.1,73,30.12,-9999.0,NNW,8.1,-,N/A,,Unknown,340,2012-11-15 00:52:00
7:52 PM,39.9,30.9,70,30.13,-9999.0,NW,8.1,-,N/A,,Unknown,320,2012-11-15 01:52:00
8:52 PM,37.0,30.0,76,30.14,-9999.0,WNW,8.1,-,N/A,,Unknown,300,2012-11-15 02:52:00
9:52 PM,34.0,28.9,82,30.15,-9999.0,West,8.1,-,N/A,,Unknown,260,2012-11-15 03:52:00
10:52 PM,37.9,30.9,76,30.15,-9999.0,West,10.4,-,N/A,,Unknown,280,2012-11-15 04:52:00
11:52 PM,37.9,30.9,76,30.15,-9999.0,WNW,8.1,-,N/A,,Unknown,290,2012-11-15 05:52:00